Ravensdale, Washington
Current Conditions -  °F | °C
As of 9:53 AM on Tuesday 21 Oct 2014 (Local Time) from KRNT Reporting Station
Broken Clouds Broken Clouds  
Wind Chill: 14°   Ceiling: 5500
Heat Index: 14°   Visibility: 10mi
Dew Point: 11°   Wind: 5mph
Humidity: 81%   Direction: 140°SE
Pressure: 29.91"   Gusts: NA
Location:  47.35°N, 121.99°W
Report Text: KRNT 211653Z 14004KT 10SM FEW035 SCT046 BKN055 14/11 A2991 RMK AO2 SLP134 T01440111
Loading
Personal Weather Stations






























Interactive Weather Map
Tropical Storm Tracking
New forecast layout! Learn more

10-Day Weather Forecast

Advertisements
Track Severe Weather on mobile